首页
METAR-TAF:

METAR-TAF

机场 :

特里布万国际机场

加德滿都, 尼泊尔

纬度: 27-42N, 经度: 085-22E, 海拔: 1337米

当前天气观测

该预报发布于16分钟前的00:50 UTC
风速2节,风向多变
温度 10°C
湿度 100%
气压 1018 hPa
能見度: 2500
少量云层高于1000英尺
轻雾

METAR: VNKT 130050Z VRB02KT 2500 BR FEW010 10/10 Q1018 NOSIG

时间: 06:51 (01:06 UTC)

预报

该预报发布于2小时和6分钟前的23:00 UTC
预报有效从13日的 00点(UTC)到 13日的 24点(UTC)
风速节,风向
能見度: 4000
少量云层高于1500英尺
散云层高于10000英尺
轻雾
几率 40%
从 13日的 01点(UTC)到 13日的 03点(UTC)
能見度: 3000
轻雾
成为
从 13日的 04点(UTC)到 13日的 05点(UTC)
风速3节,风向东南
能見度: 6000
少量云层高于1500英尺
成为
从 13日的 07点(UTC)到 13日的 08点(UTC)
风速7节,风向西
能見度: 8000
少量云层高于2000英尺
成为
从 13日的 14点(UTC)到 13日的 15点(UTC)
风速3节,风向
能見度: 7000
少量云层高于1500英尺

TAF: VNKT 122300Z 1300/1324 00000KT 4000 BR FEW015 SCT100 PROB40 1301/1303 3000 BR BECMG 1304/1305 14003KT 6000 FEW015 BECMG 1307/1308 26007KT 8000 FEW020 BECMG 1314/1315 09003KT 7000 FEW015

超过4000个机场的气象观测和天气预报(METAR&TAF报告)。

可查询的气象台以黄色和红色小点在地图上表示。

将鼠标移到小点上方,可查看气象台名称。

然后点击查看天气观测和预报。

如需切换地图:点击带黑十字的绿色按钮放大地图;点击带横线的绿色按钮缩小地图;或者点击绿色箭头查看邻近地区的地图。


METAR-TAF: